Time;durP1;ratioP1;P1;durP2;ratioP2;P2;SDS_P1;SDS_P2;PMS_P1;PMS_P2;Temp;Humidity;BMP_temperature;BMP_pressure;BME280_temperature;BME280_humidity;BME280_pressure;Samples;Min_cycle;Max_cycle;Signal;HPM_P1;HPM_P2
2022/09/25 00:00:41;;;;;;;6.65;6.00;;;;;;;9.66;100.00;163089.75;4990187;28;20406;-64
2022/09/25 00:03:07;;;;;;;6.20;5.70;;;;;;;9.68;100.00;163096.47;4991421;28;20022;-64
2022/09/25 00:05:35;;;;;;;6.43;5.57;;;;;;;9.67;100.00;163092.44;4989999;28;20049;-64
2022/09/25 00:08:00;;;;;;;8.57;5.05;;;;;;;9.65;100.00;163088.41;4991825;28;20022;-64
2022/09/25 00:10:28;;;;;;;5.70;5.22;;;;;;;9.66;100.00;163091.13;4989644;28;20134;-64
2022/09/25 00:12:53;;;;;;;8.60;6.32;;;;;;;9.66;100.00;163089.75;4990824;28;20051;-64
2022/09/25 00:15:19;;;;;;;21.73;4.88;;;;;;;9.64;100.00;163084.38;4990645;28;20956;-64
2022/09/25 00:17:44;;;;;;;14.55;4.20;;;;;;;9.65;100.00;163087.03;4995491;28;20390;-63
2022/09/25 00:20:09;;;;;;;6.47;4.03;;;;;;;9.58;100.00;163069.53;4993755;28;20046;-64
2022/09/25 00:22:35;;;;;;;11.60;4.65;;;;;;;9.60;100.00;163073.56;4995964;28;20033;-64
2022/09/25 00:25:01;;;;;;;8.48;5.88;;;;;;;9.60;100.00;163073.56;4993459;28;20050;-64
2022/09/25 00:27:26;;;;;;;10.98;6.72;;;;;;;9.61;100.00;163076.28;4995630;28;20049;-64
2022/09/25 00:29:52;;;;;;;6.82;4.82;;;;;;;9.57;100.00;163065.50;4994154;28;20038;-64
2022/09/25 00:32:17;;;;;;;9.15;4.35;;;;;;;9.57;100.00;163065.50;4994676;28;20483;-64
2022/09/25 00:34:42;;;;;;;8.13;5.55;;;;;;;9.52;100.00;163054.69;4993936;28;20109;-64
2022/09/25 00:37:08;;;;;;;6.85;4.95;;;;;;;9.47;100.00;163039.81;4995174;28;20023;-64
2022/09/25 00:39:34;;;;;;;8.85;4.60;;;;;;;9.43;100.00;163030.38;4993565;28;20528;-64
2022/09/25 00:41:59;;;;;;;9.02;5.53;;;;;;;9.32;100.00;163000.75;4995282;28;20239;-64
2022/09/25 00:44:51;;;;;;;11.27;7.25;;;;;;;9.40;100.00;163022.31;4993723;28;20116;-64
2022/09/25 00:47:22;;;;;;;12.05;6.90;;;;;;;9.37;100.00;163014.22;4994602;28;20034;-64
2022/09/25 00:49:49;;;;;;;11.30;5.93;;;;;;;9.32;100.00;163000.75;4993853;28;20042;-64
2022/09/25 00:52:14;;;;;;;44.10;8.57;;;;;;;9.21;100.00;162973.75;4994900;28;20110;-64
2022/09/25 00:54:47;;;;;;;20.02;3.65;;;;;;;9.14;100.00;162953.53;4993159;28;20043;-64
2022/09/25 00:57:18;;;;;;;7.10;5.32;;;;;;;9.05;100.00;162931.97;4994846;28;20486;-64
2022/09/25 00:59:46;;;;;;;7.53;4.40;;;;;;;9.02;100.00;162922.53;4993451;28;20038;-64
2022/09/25 01:02:23;;;;;;;8.98;5.43;;;;;;;9.01;100.00;162919.81;4994363;28;20031;-64
2022/09/25 01:04:50;;;;;;;7.75;5.32;;;;;;;9.02;100.00;162922.53;4993552;28;20038;-64
2022/09/25 01:07:16;;;;;;;5.82;5.05;;;;;;;8.96;100.00;162906.34;4994502;28;20110;-64
2022/09/25 01:09:43;;;;;;;3.90;3.60;;;;;;;8.91;100.00;162892.81;4993060;28;20052;-65
2022/09/25 01:12:09;;;;;;;12.38;5.03;;;;;;;8.87;100.00;162883.38;4994539;28;20105;-64
2022/09/25 01:14:34;;;;;;;13.15;4.93;;;;;;;8.81;100.00;162867.22;4993283;28;20043;-65
2022/09/25 01:17:20;;;;;;;5.03;4.60;;;;;;;8.78;100.00;162859.16;4994114;28;20030;-64
2022/09/25 01:20:13;;;;;;;8.93;5.38;;;;;;;8.73;100.00;162847.03;4993145;28;20567;-65
2022/09/25 01:22:58;;;;;;;15.85;5.25;;;;;;;8.69;100.00;162836.22;4994576;28;20033;-62
2022/09/25 01:26:00;;;;;;;12.02;5.90;;;;;;;8.69;100.00;162836.22;4992685;28;20129;-63
2022/09/25 01:28:47;;;;;;;8.88;5.88;;;;;;;8.67;100.00;162830.84;4992696;28;20105;-62
2022/09/25 01:31:20;;;;;;;8.00;5.45;;;;;;;8.61;100.00;162816.00;4993604;28;20063;-63
2022/09/25 01:33:51;;;;;;;12.75;5.88;;;;;;;8.67;100.00;162830.84;4993049;28;20104;-62
2022/09/25 01:36:53;;;;;;;21.52;6.68;;;;;;;8.68;100.00;162833.50;4994238;28;20417;-62
2022/09/25 01:39:21;;;;;;;16.77;7.03;;;;;;;8.65;100.00;162825.44;4970506;28;20141;-63
2022/09/25 01:41:57;;;;;;;11.98;6.00;;;;;;;8.63;100.00;162820.03;4974990;28;20034;-62
2022/09/25 01:44:29;;;;;;;19.77;6.63;;;;;;;8.61;100.00;162814.63;4972930;28;20117;-62
2022/09/25 01:47:02;;;;;;;8.13;5.22;;;;;;;8.60;100.00;162811.97;4974622;28;20494;-62
2022/09/25 01:49:32;;;;;;;9.88;5.70;;;;;;;8.54;100.00;162798.47;4973349;28;20154;-63
2022/09/25 01:52:01;;;;;;;10.52;5.22;;;;;;;8.49;100.00;162785.00;4979753;28;20037;-62
2022/09/25 01:54:32;;;;;;;;;;;;;;;8.48;100.00;162782.28;4992840;28;20046;-62
2022/09/25 01:57:26;;;;;;;8.10;5.50;;;;;;;8.48;100.00;162782.28;4994076;28;20000;-62
2022/09/25 02:00:07;;;;;;;12.82;4.97;;;;;;;8.45;100.00;162774.13;4992146;28;20160;-64
2022/09/25 02:02:41;;;;;;;15.25;5.97;;;;;;;8.45;100.00;162772.81;4993780;28;20026;-64
2022/09/25 02:05:14;;;;;;;7.70;6.25;;;;;;;8.46;100.00;162776.84;4991819;28;20065;-64
2022/09/25 02:07:46;;;;;;;12.80;5.22;;;;;;;8.45;100.00;162774.13;4993670;28;20034;-64
2022/09/25 02:10:28;;;;;;;10.95;6.38;;;;;;;8.44;100.00;162770.13;4991937;28;20046;-64
2022/09/25 02:12:57;;;;;;;14.32;6.18;;;;;;;8.41;100.00;162763.38;4993493;28;20101;-64
2022/09/25 02:15:32;;;;;;;19.42;6.30;;;;;;;8.37;100.00;162752.63;4991764;28;20042;-64
2022/09/25 02:20:57;;;;;;;9.20;4.70;;;;;;;8.23;100.00;162717.53;4991705;28;20054;-64
2022/09/25 02:23:43;;;;;;;8.10;5.07;;;;;;;8.15;100.00;162696.00;4991734;28;20024;-64
2022/09/25 02:26:15;;;;;;;9.57;5.47;;;;;;;8.13;100.00;162690.63;4993390;28;20422;-64
2022/09/25 02:28:42;;;;;;;17.30;6.13;;;;;;;8.10;100.00;162682.50;4992037;28;20044;-65
2022/09/25 02:31:11;;;;;;;12.65;6.97;;;;;;;8.08;100.00;162677.09;4992754;28;20275;-65
2022/09/25 02:33:37;;;;;;;11.52;5.90;;;;;;;8.03;100.00;162663.63;4991577;28;20038;-65
2022/09/25 02:36:05;;;;;;;9.32;5.32;;;;;;;7.99;100.00;162652.88;4993073;28;20018;-65
2022/09/25 02:38:33;;;;;;;7.13;4.27;;;;;;;7.96;100.00;162644.78;4990909;28;20501;-65
2022/09/25 02:41:14;;;;;;;11.05;5.28;;;;;;;7.94;100.00;162642.06;4992856;28;20432;-65
2022/09/25 02:44:10;;;;;;;55.45;9.00;;;;;;;7.88;100.00;162625.91;4991679;28;20612;-65
2022/09/25 02:47:06;;;;;;;11.57;5.30;;;;;;;7.83;100.00;162612.44;4992691;28;20077;-65
2022/09/25 02:49:40;;;;;;;7.75;5.13;;;;;;;7.81;100.00;162607.06;4991409;28;20046;-65
2022/09/25 02:52:49;;;;;;;120.70;10.65;;;;;;;7.79;100.00;162601.66;4992724;28;20026;-64
2022/09/25 02:55:37;;;;;;;10.30;4.78;;;;;;;7.71;100.00;162581.47;4980469;28;20409;-61
2022/09/25 02:58:26;;;;;;;64.88;6.72;;;;;;;7.59;100.00;162550.47;4992787;28;20106;-62
2022/09/25 03:00:53;;;;;;;46.22;4.43;;;;;;;7.59;100.00;162549.13;4991289;28;20042;-64
2022/09/25 03:03:22;;;;;;;101.22;6.03;;;;;;;7.57;100.00;162543.75;4992366;28;20093;-64
2022/09/25 03:05:50;;;;;;;192.52;10.90;;;;;;;7.48;100.00;162520.84;4971890;28;20046;-65
2022/09/25 03:11:01;;;;;;;88.00;5.68;;;;;;;7.29;100.00;162472.34;4990834;28;20122;-65
2022/09/25 03:13:30;;;;;;;7.53;2.65;;;;;;;7.26;100.00;162464.22;4991317;28;20026;-64
2022/09/25 03:16:00;;;;;;;5.57;2.85;;;;;;;7.22;100.00;162453.47;4992478;28;20024;-65
2022/09/25 03:18:27;;;;;;;53.88;4.70;;;;;;;7.21;100.00;162450.78;4990858;28;20143;-63
2022/09/25 03:20:53;;;;;;;13.10;2.67;;;;;;;7.14;100.00;162433.31;4992439;28;20034;-64
2022/09/25 03:23:18;;;;;;;10.95;2.80;;;;;;;7.10;100.00;162422.50;4991840;28;20026;-63
2022/09/25 03:25:43;;;;;;;7.28;3.35;;;;;;;7.12;100.00;162426.53;4990582;28;20501;-60
2022/09/25 03:28:10;;;;;;;37.30;5.10;;;;;;;7.09;100.00;162419.81;4992139;28;20033;-63
2022/09/25 03:30:39;;;;;;;15.98;5.20;;;;;;;7.05;100.00;162407.66;4990080;28;20145;-64
2022/09/25 03:33:09;;;;;;;11.90;5.18;;;;;;;7.01;100.00;162398.25;4992138;28;20088;-64
2022/09/25 03:35:36;;;;;;;45.03;4.70;;;;;;;6.96;100.00;162386.13;4990801;28;20129;-64
2022/09/25 03:38:02;;;;;;;11.80;2.80;;;;;;;6.89;100.00;162367.28;4991562;28;20030;-64
2022/09/25 03:40:27;;;;;;;6.72;3.42;;;;;;;6.85;100.00;162356.53;4990228;28;20046;-61
2022/09/25 03:42:52;;;;;;;16.52;4.40;;;;;;;6.81;100.00;162345.78;4992135;28;20377;-61
2022/09/25 03:45:18;;;;;;;6.28;3.97;;;;;;;6.80;100.00;162344.41;4989952;28;20077;-61
2022/09/25 03:47:43;;;;;;;6.05;5.45;;;;;;;6.83;100.00;162351.13;4991528;28;20385;-60
2022/09/25 03:50:09;;;;;;;6.85;5.40;;;;;;;6.81;100.00;162345.78;4989560;28;20053;-61
2022/09/25 03:52:34;;;;;;;16.52;4.78;;;;;;;6.77;100.00;162334.97;4991850;28;20030;-60
2022/09/25 03:54:59;;;;;;;8.65;4.45;;;;;;;6.73;100.00;162324.22;4990276;28;20034;-61
2022/09/25 03:57:25;;;;;;;35.35;3.38;;;;;;;6.69;100.00;162313.44;4991679;28;20033;-61
2022/09/25 03:59:51;;;;;;;59.72;5.35;;;;;;;6.65;100.00;162304.00;4990095;28;20050;-62
2022/09/25 04:02:16;;;;;;;13.20;2.63;;;;;;;6.61;100.00;162293.25;4991662;28;20023;-61
2022/09/25 04:04:42;;;;;;;8.73;4.30;;;;;;;6.58;100.00;162286.53;4990261;28;20445;-61
2022/09/25 04:07:09;;;;;;;5.78;2.03;;;;;;;6.57;100.00;162283.81;4990955;28;20028;-61
2022/09/25 04:09:34;;;;;;;18.30;2.83;;;;;;;6.54;100.00;162275.72;4990212;28;20050;-61
2022/09/25 04:11:59;;;;;;;17.38;2.65;;;;;;;6.54;100.00;162274.41;4990077;28;20081;-61
2022/09/25 04:14:25;;;;;;;6.40;3.17;;;;;;;6.53;100.00;162273.03;4989809;28;20069;-61
2022/09/25 04:16:50;;;;;;;3.97;2.28;;;;;;;6.57;100.00;162282.44;4991772;28;20034;-61
2022/09/25 04:19:16;;;;;;;3.55;3.20;;;;;;;6.57;100.00;162282.44;4990169;28;20035;-61
2022/09/25 04:21:41;;;;;;;3.28;2.65;;;;;;;6.55;100.00;162278.44;4991185;28;20041;-61
2022/09/25 04:26:52;;;;;;;55.85;4.50;;;;;;;6.42;100.00;162243.44;4991633;28;20046;-61
2022/09/25 04:29:18;;;;;;;3.90;3.13;;;;;;;6.35;100.00;162227.28;4989607;28;20128;-61
2022/09/25 04:33:44;;;;;;;8.43;3.63;;;;;;;6.31;100.00;162215.16;4991480;28;20053;-62
2022/09/25 04:34:29;;;;;;;7.88;3.65;;;;;;;6.33;100.00;162221.91;4990111;28;20045;-62
2022/09/25 04:36:54;;;;;;;17.60;2.65;;;;;;;6.31;100.00;162216.50;4990971;28;20018;-63
2022/09/25 04:39:19;;;;;;;3.17;2.38;;;;;;;6.29;100.00;162211.09;4989916;28;20061;-62
2022/09/25 04:41:45;;;;;;;3.30;3.10;;;;;;;6.29;100.00;162209.78;4991382;28;20026;-62
2022/09/25 04:44:10;;;;;;;29.80;4.43;;;;;;;6.31;100.00;162216.50;4989442;28;20034;-62
2022/09/25 04:46:36;;;;;;;113.68;5.63;;;;;;;6.27;100.00;162205.75;4991382;28;20027;-63
2022/09/25 04:49:01;;;;;;;9.10;4.25;;;;;;;6.21;100.00;162189.59;4989394;28;20042;-62
2022/09/25 04:51:27;;;;;;;73.15;5.47;;;;;;;6.17;100.00;162178.81;4990136;28;20053;-62
2022/09/25 04:53:52;;;;;;;21.50;5.22;;;;;;;6.12;100.00;162166.69;4976854;28;20042;-63
2022/09/25 04:56:18;;;;;;;157.32;10.52;;;;;;;6.10;100.00;162159.97;4990349;28;20031;-62
2022/09/25 04:58:48;;;;;;;37.88;4.00;;;;;;;6.07;100.00;162151.94;4989089;28;20038;-63
2022/09/25 05:01:15;;;;;;;4.80;2.58;;;;;;;6.00;100.00;162135.72;4991817;28;20019;-65
2022/09/25 05:03:41;;;;;;;33.25;3.75;;;;;;;5.98;100.00;162130.34;4993715;28;20433;-60
2022/09/25 05:06:06;;;;;;;4.07;3.15;;;;;;;5.93;100.00;162116.84;4992925;28;20030;-60
2022/09/25 05:08:32;;;;;;;9.88;3.38;;;;;;;5.91;100.00;162111.50;4991093;28;20034;-59
2022/09/25 05:10:57;;;;;;;4.22;3.25;;;;;;;5.90;100.00;162108.81;4993307;28;20084;-60
2022/09/25 05:13:23;;;;;;;72.00;4.93;;;;;;;5.93;100.00;162115.53;4989080;28;20022;-59
2022/09/25 05:15:48;;;;;;;5.07;2.92;;;;;;;5.96;100.00;162124.94;4993756;28;20033;-59
2022/09/25 05:18:20;;;;;;;6.18;2.70;;;;;;;5.95;100.00;162122.25;4992904;28;20096;-59
2022/09/25 05:20:45;;;;;;;7.70;3.13;;;;;;;5.94;100.00;162119.53;4988450;28;20046;-59
2022/09/25 05:23:11;;;;;;;4.60;3.38;;;;;;;5.89;100.00;162106.09;4993618;28;20076;-59
2022/09/25 05:25:37;;;;;;;3.92;2.33;;;;;;;5.95;100.00;162122.25;4990648;28;20046;-59
2022/09/25 05:28:02;;;;;;;2.70;2.20;;;;;;;5.93;100.00;162116.84;4993765;28;20022;-59
2022/09/25 05:30:30;;;;;;;17.15;2.47;;;;;;;5.85;100.00;162095.31;4991540;28;20046;-59
2022/09/25 05:32:59;;;;;;;3.47;3.17;;;;;;;5.79;100.00;162080.53;4992913;28;20385;-59
2022/09/25 05:35:30;;;;;;;9.07;4.55;;;;;;;5.82;100.00;162087.25;4991988;28;20074;-59
2022/09/25 05:37:55;;;;;;;6.03;5.32;;;;;;;5.87;100.00;162102.06;4993382;28;20035;-59
2022/09/25 05:40:22;;;;;;;5.43;4.93;;;;;;;5.92;100.00;162114.16;4991000;28;20034;-62
2022/09/25 05:42:47;;;;;;;7.78;5.53;;;;;;;5.97;100.00;162126.25;4993392;28;20034;-62
2022/09/25 05:45:14;;;;;;;4.22;3.83;;;;;;;6.01;100.00;162138.44;4991622;28;20105;-63
2022/09/25 05:47:41;;;;;;;5.95;5.10;;;;;;;6.00;100.00;162135.72;4992123;28;20442;-63
2022/09/25 05:50:08;;;;;;;7.88;4.70;;;;;;;6.00;100.00;162135.72;4990651;28;20042;-63
2022/09/25 05:52:33;;;;;;;7.95;3.47;;;;;;;5.97;100.00;162126.25;4993682;28;20031;-63
2022/09/25 05:54:59;;;;;;;15.05;5.72;;;;;;;5.97;100.00;162126.25;4989589;28;20093;-63
2022/09/25 05:57:25;;;;;;;6.32;4.18;;;;;;;5.99;100.00;162133.09;4992941;28;20019;-63
2022/09/25 05:59:50;;;;;;;8.27;4.40;;;;;;;6.02;100.00;162141.13;4991008;28;20045;-63
2022/09/25 06:02:16;;;;;;;4.22;2.55;;;;;;;6.05;100.00;162146.53;4992211;28;20027;-63
2022/09/25 06:04:41;;;;;;;73.93;5.50;;;;;;;6.07;100.00;162151.94;4990399;28;20042;-63
2022/09/25 06:07:08;;;;;;;10.45;2.95;;;;;;;6.06;100.00;162149.22;4992580;28;20038;-63
2022/09/25 06:09:34;;;;;;;36.65;3.40;;;;;;;6.06;100.00;162149.22;4990118;28;20046;-65
2022/09/25 06:12:00;;;;;;;33.15;3.60;;;;;;;6.05;100.00;162146.53;4991751;28;20669;-64
2022/09/25 06:14:25;;;;;;;50.42;4.13;;;;;;;6.07;100.00;162151.94;4990550;28;20053;-59
2022/09/25 06:16:51;;;;;;;35.22;3.78;;;;;;;6.08;100.00;162154.56;4992285;28;20029;-60
2022/09/25 06:19:16;;;;;;;23.00;3.25;;;;;;;6.09;100.00;162157.28;4991569;28;20038;-60
2022/09/25 06:21:42;;;;;;;17.27;3.00;;;;;;;6.11;100.00;162164.00;4991637;28;20026;-59
2022/09/25 06:24:09;;;;;;;6.95;2.35;;;;;;;6.21;100.00;162189.59;4990404;28;20080;-59
2022/09/25 06:26:35;;;;;;;11.63;4.90;;;;;;;6.29;100.00;162209.78;4992884;28;20022;-59
2022/09/25 06:29:01;;;;;;;5.70;3.47;;;;;;;6.38;100.00;162232.63;4991287;28;20494;-59
2022/09/25 06:31:26;;;;;;;5.88;4.03;;;;;;;6.47;100.00;162256.88;4991409;28;20042;-60
2022/09/25 06:33:51;;;;;;;7.97;5.00;;;;;;;6.58;100.00;162285.16;4991534;28;20057;-59
2022/09/25 06:36:17;;;;;;;6.32;4.90;;;;;;;6.72;100.00;162322.84;4992448;28;20444;-60
2022/09/25 06:38:42;;;;;;;16.52;7.78;;;;;;;6.86;100.00;162359.22;4990499;28;20038;-59
2022/09/25 06:41:07;;;;;;;8.45;5.78;;;;;;;7.01;100.00;162396.91;4992659;28;20022;-59
2022/09/25 06:43:33;;;;;;;9.75;7.57;;;;;;;7.18;100.00;162442.72;4990209;28;20031;-59
2022/09/25 06:46:01;;;;;;;13.65;7.57;;;;;;;7.39;100.00;162496.59;4990212;28;20449;-59
2022/09/25 06:48:26;;;;;;;11.93;7.82;;;;;;;7.50;100.00;162526.19;4990982;28;20026;-59
2022/09/25 06:50:54;;;;;;;12.63;7.43;;;;;;;7.58;100.00;162547.75;4992252;28;20026;-59
2022/09/25 06:53:21;;;;;;;10.07;7.53;;;;;;;7.79;100.00;162601.66;4990985;28;20023;-59
2022/09/25 06:55:48;;;;;;;9.85;8.80;;;;;;;7.94;100.00;162640.75;4990572;28;20513;-60
2022/09/25 06:58:16;;;;;;;18.67;8.43;;;;;;;8.13;100.00;162690.63;4991926;28;20116;-59
2022/09/25 07:00:46;;;;;;;11.43;8.20;;;;;;;8.31;100.00;162736.41;4990065;28;20048;-59
2022/09/25 07:05:55;;;;;;;16.80;10.55;;;;;;;8.70;100.00;162838.91;4989154;28;20057;-59
2022/09/25 07:08:20;;;;;;;15.73;9.02;;;;;;;8.89;100.00;162890.19;4990864;28;20401;-59
2022/09/25 07:10:50;;;;;;;22.92;9.18;;;;;;;8.99;100.00;162914.41;4989882;28;20042;-60
2022/09/25 07:13:24;;;;;;;16.52;9.48;;;;;;;9.14;100.00;162954.88;4991021;28;20026;-59
2022/09/25 07:16:00;;;;;;;16.20;9.73;;;;;;;9.32;100.00;163000.75;4989867;28;20056;-60
2022/09/25 07:18:27;;;;;;;20.95;10.60;;;;;;;9.43;100.00;163030.38;4990625;28;20524;-59
2022/09/25 07:20:57;;;;;;;10.52;7.07;;;;;;;9.61;100.00;163076.28;4991708;28;20110;-60
2022/09/25 07:23:23;;;;;;;18.55;8.05;;;;;;;9.73;100.00;163107.31;4989179;28;20041;-59
2022/09/25 07:25:48;;;;;;;14.07;9.13;;;;;;;9.87;100.00;163145.06;4990986;28;20026;-59
2022/09/25 07:28:14;;;;;;;18.70;8.75;;;;;;;9.97;100.00;163172.06;4991294;28;20037;-59
2022/09/25 07:30:41;;;;;;;13.63;7.57;;;;;;;10.19;100.00;163227.38;4989101;28;20409;-59
2022/09/25 07:33:06;;;;;;;8.38;7.05;;;;;;;10.34;100.00;163266.53;4991343;28;20022;-60
2022/09/25 07:35:36;;;;;;;13.68;8.10;;;;;;;10.50;100.00;163308.41;5007781;28;20049;-59
2022/09/25 07:38:02;;;;;;;12.88;7.63;;;;;;;10.64;100.00;163346.19;4993196;28;20029;-60
2022/09/25 07:40:27;;;;;;;18.15;8.70;;;;;;;-146.58;100.00;69501.63;5007170;28;20045;-59
2022/09/25 07:43:03;;;;;;;10.48;6.68;;;;;;;11.04;100.00;163451.50;4997780;28;20056;-59
2022/09/25 07:45:29;;;;;;;13.95;8.57;;;;;;;11.63;100.00;163604.06;5008486;28;20064;-60
2022/09/25 07:48:00;;;;;;;11.20;7.68;;;;;;;12.06;100.00;163717.63;5010882;28;20037;-60
2022/09/25 07:50:30;;;;;;;10.63;7.03;;;;;;;12.36;100.00;163797.34;5009032;28;20042;-59
2022/09/25 07:52:56;;;;;;;8.77;6.07;;;;;;;12.61;100.00;163862.22;5010143;28;20030;-59
2022/09/25 07:55:22;;;;;;;7.03;4.60;;;;;;;12.57;100.00;163850.03;5000308;28;20093;-59
2022/09/25 07:57:49;;;;;;;11.45;8.25;;;;;;;-146.58;100.00;69501.63;4991028;28;20030;-59
2022/09/25 08:00:15;;;;;;;14.38;5.90;;;;;;;-146.58;100.00;69501.63;4988850;28;20042;-59
2022/09/25 08:02:40;;;;;;;8.30;5.75;;;;;;;13.16;100.00;164005.47;4991217;28;20398;-60
2022/09/25 08:05:06;;;;;;;5.57;3.97;;;;;;;-146.58;100.00;69501.63;4989267;28;20092;-59
2022/09/25 08:07:31;;;;;;;70.38;63.08;;;;;;;-146.58;100.00;69501.63;4990258;28;20030;-69
2022/09/25 08:09:56;;;;;;;9.55;6.57;;;;;;;-146.58;100.00;69501.63;4989455;28;20488;-60
2022/09/25 08:12:23;;;;;;;9.70;4.85;;;;;;;-146.58;100.00;69501.63;4989997;28;20030;-59
2022/09/25 08:14:52;;;;;;;10.75;3.80;;;;;;;-146.58;100.00;69501.63;4988958;28;20038;-59
2022/09/25 08:17:18;;;;;;;9.02;5.18;;;;;;;-146.58;100.00;69501.63;4991071;28;20022;-59
2022/09/25 08:19:44;;;;;;;8.05;4.68;;;;;;;-146.58;100.00;69501.63;4996298;28;20046;-60
2022/09/25 08:22:09;;;;;;;5.68;4.10;;;;;;;-146.58;100.00;69501.63;4989248;28;20034;-59
2022/09/25 08:24:35;;;;;;;8.85;4.50;;;;;;;-146.58;100.00;69501.63;4989008;28;20145;-60
2022/09/25 08:27:00;;;;;;;8.82;3.85;;;;;;;-146.58;100.00;69501.63;4990233;28;20033;-59
2022/09/25 08:29:25;;;;;;;8.93;4.45;;;;;;;-146.58;100.00;69501.63;4987631;28;20497;-60
2022/09/25 08:31:51;;;;;;;7.18;3.33;;;;;;;-146.58;100.00;69501.63;4989467;28;20520;-59
2022/09/25 08:34:17;;;;;;;10.68;4.72;;;;;;;-146.58;100.00;69501.63;4988399;28;20043;-60
2022/09/25 08:36:42;;;;;;;7.22;3.38;;;;;;;-146.58;100.00;69501.63;4991067;28;20069;-59
2022/09/25 08:39:08;;;;;;;6.28;3.55;;;;;;;-146.58;100.00;69501.63;4993296;28;20125;-59
2022/09/25 08:41:42;;;;;;;6.25;4.35;;;;;;;-146.58;100.00;69501.63;4994151;28;20030;-59
2022/09/25 08:44:12;;;;;;;7.47;4.20;;;;;;;-146.58;100.00;69501.63;4991320;28;20050;-60
2022/09/25 08:50:03;;;;;;;6.28;2.38;;;;;;;-146.58;100.00;69501.63;5005012;28;20137;-59
2022/09/25 08:52:30;;;;;;;6.95;3.15;;;;;;;-146.58;100.00;69501.63;5013265;28;20049;-59
2022/09/25 08:54:55;;;;;;;32.03;5.28;;;;;;;-146.58;100.00;69501.63;5008454;28;20121;-59
2022/09/25 08:57:29;;;;;;;5.25;2.72;;;;;;;-146.58;100.00;69501.63;4994281;28;20542;-59
2022/09/25 09:00:00;;;;;;;7.80;2.40;;;;;;;-146.58;100.00;69501.63;4992144;28;20499;-58
2022/09/25 09:02:39;;;;;;;7.78;2.67;;;;;;;-146.58;100.00;69501.63;4993943;28;20026;-59
2022/09/25 09:05:16;;;;;;;8.85;2.88;;;;;;;-146.58;100.00;69501.63;5006901;28;20092;-59
2022/09/25 09:07:45;;;;;;;8.95;3.00;;;;;;;-146.58;100.00;69501.63;5012867;28;20544;-59
2022/09/25 09:10:28;;;;;;;1.65;1.33;;;;;;;-146.58;100.00;69501.63;5011759;28;20038;-59
2022/09/25 09:13:29;;;;;;;6.15;1.70;;;;;;;-146.58;100.00;69501.63;5013841;28;20022;-59
2022/09/25 09:16:01;;;;;;;7.95;1.80;;;;;;;-146.58;100.00;69501.63;5011484;28;20125;-59
2022/09/25 09:18:29;;;;;;;12.02;3.13;;;;;;;-146.58;100.00;69501.63;5009773;28;20040;-59
2022/09/25 09:21:09;;;;;;;10.97;2.03;;;;;;;-146.58;100.00;69501.63;4992558;28;20026;-59
2022/09/25 09:24:07;;;;;;;8.32;1.45;;;;;;;-146.58;100.00;69501.63;4990074;28;20817;-59
2022/09/25 09:26:54;;;;;;;3.83;1.95;;;;;;;-146.58;100.00;69501.63;4993687;28;20085;-59
2022/09/25 09:29:34;;;;;;;4.25;1.77;;;;;;;-146.58;100.00;69501.63;4990581;28;20104;-59
2022/09/25 09:32:24;;;;;;;7.18;2.38;;;;;;;-146.58;100.00;69501.63;4991472;28;20034;-59
2022/09/25 09:35:26;;;;;;;6.00;1.38;;;;;;;-146.58;100.00;69501.63;4992315;28;20157;-59
2022/09/25 09:37:57;;;;;;;6.93;1.48;;;;;;;-146.58;100.00;69501.63;4982778;28;20023;-59
2022/09/25 09:40:47;;;;;;;11.55;2.83;;;;;;;-146.58;100.00;69501.63;4991692;28;20046;-59
2022/09/25 09:43:35;;;;;;;6.78;1.65;;;;;;;-146.58;100.00;69501.63;4992054;28;20034;-60
2022/09/25 09:46:12;;;;;;;7.75;2.22;;;;;;;-146.58;100.00;69501.63;4963836;28;20050;-59
2022/09/25 09:48:57;;;;;;;4.20;1.42;;;;;;;-146.58;100.00;69501.63;4968060;28;20047;-59
2022/09/25 09:51:31;;;;;;;4.80;1.70;;;;;;;-146.58;100.00;69501.63;4971918;28;20590;-60
2022/09/25 09:54:05;;;;;;;6.15;1.65;;;;;;;-146.58;100.00;69501.63;4972409;28;20053;-60
2022/09/25 09:56:31;;;;;;;7.63;2.47;;;;;;;-146.58;100.00;69501.63;4973737;28;20053;-59
2022/09/25 09:59:15;;;;;;;4.65;1.33;;;;;;;-146.58;100.00;69501.63;4970167;28;20038;-60
2022/09/25 10:01:43;;;;;;;6.40;2.63;;;;;;;-146.58;100.00;69501.63;4973612;28;20045;-59
2022/09/25 10:04:09;;;;;;;;;;;;;;;-146.58;100.00;69501.63;4972936;28;20439;-59
2022/09/25 10:06:37;;;;;;;10.20;2.27;;;;;;;-146.58;100.00;69501.63;4972775;28;19918;-59
2022/09/25 10:09:03;;;;;;;;;;;;;;;-146.58;100.00;69501.63;4971938;28;20470;-60
2022/09/25 10:11:31;;;;;;;9.77;3.80;;;;;;;-146.58;100.00;69501.63;4973353;28;20365;-59
2022/09/25 10:13:58;;;;;;;13.45;4.10;;;;;;;-146.58;100.00;69501.63;4980944;28;20037;-59
2022/09/25 10:16:25;;;;;;;6.88;1.30;;;;;;;16.38;100.00;90666.41;5001660;28;20161;-59
2022/09/25 10:18:54;;;;;;;5.70;1.63;;;;;;;-146.58;100.00;69501.63;4991348;28;20518;-60
2022/09/25 10:21:24;;;;;;;5.25;2.17;;;;;;;-146.58;100.00;69501.63;4991390;28;20038;-60
2022/09/25 10:23:54;;;;;;;10.52;3.22;;;;;;;-146.58;100.00;69501.63;4995458;28;20613;-59
2022/09/25 10:26:32;;;;;;;5.55;1.48;;;;;;;-146.58;100.00;69501.63;5011933;28;20500;-60
2022/09/25 10:28:59;;;;;;;5.95;1.98;;;;;;;-146.58;100.00;69501.63;4990739;28;20061;-59
2022/09/25 10:31:31;;;;;;;5.70;1.55;;;;;;;-146.58;100.00;69501.63;4992419;28;20050;-59
2022/09/25 10:34:21;;;;;;;2.55;1.45;;;;;;;-146.58;100.00;69501.63;4991108;28;20130;-59
2022/09/25 10:36:48;;;;;;;1.52;0.90;;;;;;;-146.58;100.00;69501.63;4991765;28;20022;-60
2022/09/25 10:39:33;;;;;;;3.78;2.03;;;;;;;-146.58;100.00;69501.63;4990410;28;20046;-60
2022/09/25 10:42:00;;;;;;;7.15;1.70;;;;;;;-146.58;100.00;69501.63;4992108;28;20101;-60
2022/09/25 10:44:34;;;;;;;3.72;1.27;;;;;;;-146.58;100.00;69501.63;4989868;28;20473;-59
2022/09/25 10:50:22;;;;;;;6.32;2.05;;;;;;;-146.58;100.00;69501.63;4989831;28;20048;-60
2022/09/25 10:52:57;;;;;;;3.63;1.67;;;;;;;-146.58;100.00;69501.63;4992503;28;20030;-60
2022/09/25 10:55:32;;;;;;;3.97;1.13;;;;;;;-146.58;100.00;69501.63;4989381;28;20069;-60
2022/09/25 10:58:09;;;;;;;3.42;1.30;;;;;;;-146.58;100.00;69501.63;4991690;28;20037;-59
2022/09/25 11:00:52;;;;;;;1.42;1.15;;;;;;;-146.58;100.00;69501.63;4990144;28;20089;-59
2022/09/25 11:03:30;;;;;;;2.80;0.93;;;;;;;-146.58;100.00;69501.63;4992262;28;20049;-59
2022/09/25 11:05:58;;;;;;;9.13;2.13;;;;;;;-146.58;100.00;69501.63;4989723;28;20042;-59
2022/09/25 11:08:28;;;;;;;;;;;;;;;-146.58;100.00;69501.63;4990626;28;20045;-59
2022/09/25 11:10:56;;;;;;;7.55;1.63;;;;;;;-146.58;100.00;69501.63;4991270;28;20032;-59
2022/09/25 11:13:25;;;;;;;2.58;1.23;;;;;;;-146.58;100.00;69501.63;4991224;28;20022;-60
2022/09/25 11:15:52;;;;;;;3.95;1.13;;;;;;;-146.58;100.00;69501.63;4990564;28;20514;-59
2022/09/25 11:19:03;;;;;;;2.72;1.00;;;;;;;-146.58;100.00;69501.63;4990717;28;20026;-59
2022/09/25 11:21:36;;;;;;;4.07;1.45;;;;;;;-146.58;100.00;69501.63;4969918;28;20039;-59
2022/09/25 11:24:12;;;;;;;5.70;1.30;;;;;;;-146.58;100.00;69501.63;4990203;28;20628;-59
2022/09/25 11:26:48;;;;;;;2.33;0.80;;;;;;;-146.58;100.00;69501.63;4990185;28;20126;-60
2022/09/25 11:29:33;;;;;;;5.32;1.65;;;;;;;-146.58;100.00;69501.63;4990031;28;20117;-60
2022/09/25 11:32:17;;;;;;;3.63;1.35;;;;;;;-146.58;100.00;69501.63;4990338;28;20034;-59
2022/09/25 11:35:05;;;;;;;1.95;1.10;;;;;;;-146.58;100.00;69501.63;4989006;28;20405;-60
2022/09/25 11:37:48;;;;;;;2.40;1.33;;;;;;;-146.58;100.00;69501.63;4992233;28;20030;-59
2022/09/25 11:43:50;;;;;;;;;;;;;;;-146.58;100.00;69501.63;4983794;28;20093;-60
2022/09/25 11:46:25;;;;;;;1.77;1.10;;;;;;;-146.58;100.00;69501.63;5010657;28;19905;-59
2022/09/25 11:49:15;;;;;;;4.10;1.50;;;;;;;-146.58;100.00;69501.63;5008780;28;20041;-59
2022/09/25 11:52:38;;;;;;;5.38;1.33;;;;;;;-146.58;100.00;69501.63;5011301;28;20022;-60
2022/09/25 11:55:35;;;;;;;3.35;1.20;;;;;;;-146.58;100.00;69501.63;4946058;28;20047;-59